Amherst Junction, Wisconsin
Current Conditions -  °F | °C
As of 1:35 AM on Sunday 26 Oct 2014 (Local Time) from KSTE Reporting Station
Clear Clear  
Wind Chill: 37°   Ceiling: Unl
Heat Index: 40°   Visibility: 10mi
Dew Point: 26°   Wind: 5mph
Humidity: 57%   Direction: 270°W
Pressure: 29.99"   Gusts: NA
Location:  44.47°N, 89.31°W
Report Text: KSTE 260635Z AUTO 27004KT 10SM CLR 05/M03 A2999 RMK AO2 T00471032
Loading
Personal Weather Stations






























Interactive Weather Map New forecast layout! Learn more

10-Day Weather Forecast

Advertisements
Track Severe Weather on mobile